sensor_id;sensor_type;location;lat;lon;timestamp;pressure;altitude;pressure_sealevel;temperature;humidity
15817;BME280;8009;50.070;8.232;2023-04-15T00:01:08;99104.84;;;7.85;54.91
15817;BME280;8009;50.070;8.232;2023-04-15T00:03:37;99110.03;;;7.52;56.23
15817;BME280;8009;50.070;8.232;2023-04-15T00:06:06;99110.59;;;7.33;57.15
15817;BME280;8009;50.070;8.232;2023-04-15T00:08:34;99106.59;;;7.50;57.97
15817;BME280;8009;50.070;8.232;2023-04-15T00:11:06;99108.00;;;7.67;57.95
15817;BME280;8009;50.070;8.232;2023-04-15T00:13:35;99107.25;;;7.65;58.35
15817;BME280;8009;50.070;8.232;2023-04-15T00:16:05;99100.78;;;7.68;57.94
15817;BME280;8009;50.070;8.232;2023-04-15T00:18:34;99100.16;;;7.64;57.65
15817;BME280;8009;50.070;8.232;2023-04-15T00:21:03;99100.59;;;7.47;59.28
15817;BME280;8009;50.070;8.232;2023-04-15T00:23:31;99097.63;;;7.85;59.05
15817;BME280;8009;50.070;8.232;2023-04-15T00:26:00;99099.81;;;7.69;59.45
15817;BME280;8009;50.070;8.232;2023-04-15T00:28:31;99093.25;;;7.95;57.62
15817;BME280;8009;50.070;8.232;2023-04-15T00:31:00;99102.13;;;7.73;58.68
15817;BME280;8009;50.070;8.232;2023-04-15T00:33:28;99098.56;;;7.62;58.11
15817;BME280;8009;50.070;8.232;2023-04-15T00:35:57;99090.28;;;7.65;59.06
15817;BME280;8009;50.070;8.232;2023-04-15T00:38:25;99100.09;;;7.30;60.99
15817;BME280;8009;50.070;8.232;2023-04-15T00:40:53;99091.72;;;7.57;59.36
15817;BME280;8009;50.070;8.232;2023-04-15T00:43:22;99086.25;;;7.81;60.84
15817;BME280;8009;50.070;8.232;2023-04-15T00:45:54;99095.50;;;7.55;60.40
15817;BME280;8009;50.070;8.232;2023-04-15T00:48:23;99082.84;;;7.68;59.49
15817;BME280;8009;50.070;8.232;2023-04-15T00:50:53;99084.16;;;7.63;60.05
15817;BME280;8009;50.070;8.232;2023-04-15T00:53:21;99085.28;;;7.60;60.87
15817;BME280;8009;50.070;8.232;2023-04-15T00:55:50;99092.56;;;7.12;62.66
15817;BME280;8009;50.070;8.232;2023-04-15T00:58:18;99092.53;;;6.76;63.11
15817;BME280;8009;50.070;8.232;2023-04-15T01:00:46;99091.63;;;6.65;64.02
15817;BME280;8009;50.070;8.232;2023-04-15T01:03:21;99088.00;;;7.01;62.82
15817;BME280;8009;50.070;8.232;2023-04-15T01:05:49;99090.28;;;6.83;63.18
15817;BME280;8009;50.070;8.232;2023-04-15T01:08:22;99087.81;;;7.15;62.30
15817;BME280;8009;50.070;8.232;2023-04-15T01:10:52;99086.81;;;6.81;63.79
15817;BME280;8009;50.070;8.232;2023-04-15T01:13:21;99084.84;;;6.72;65.04
15817;BME280;8009;50.070;8.232;2023-04-15T01:15:51;99084.31;;;6.91;64.19
15817;BME280;8009;50.070;8.232;2023-04-15T01:18:23;99079.53;;;7.18;63.89
15817;BME280;8009;50.070;8.232;2023-04-15T01:20:51;99079.31;;;7.21;63.71
15817;BME280;8009;50.070;8.232;2023-04-15T01:23:20;99082.38;;;7.28;63.80
15817;BME280;8009;50.070;8.232;2023-04-15T01:25:52;99082.31;;;7.52;62.15
15817;BME280;8009;50.070;8.232;2023-04-15T01:28:21;99085.38;;;7.58;63.06
15817;BME280;8009;50.070;8.232;2023-04-15T01:30:49;99085.13;;;7.62;62.04
15817;BME280;8009;50.070;8.232;2023-04-15T01:33:18;99085.94;;;7.40;62.70
15817;BME280;8009;50.070;8.232;2023-04-15T01:35:46;99093.56;;;7.11;64.34
15817;BME280;8009;50.070;8.232;2023-04-15T01:38:14;99086.28;;;7.35;63.07
15817;BME280;8009;50.070;8.232;2023-04-15T01:40:43;99087.38;;;7.21;63.43
15817;BME280;8009;50.070;8.232;2023-04-15T01:43:14;99077.88;;;7.40;63.53
15817;BME280;8009;50.070;8.232;2023-04-15T01:45:42;99084.09;;;7.40;63.11
15817;BME280;8009;50.070;8.232;2023-04-15T01:48:11;99083.09;;;7.19;64.66
15817;BME280;8009;50.070;8.232;2023-04-15T01:50:40;99088.91;;;7.13;63.75
15817;BME280;8009;50.070;8.232;2023-04-15T01:53:08;99090.75;;;7.12;64.28
15817;BME280;8009;50.070;8.232;2023-04-15T01:55:36;99087.38;;;7.32;63.31
15817;BME280;8009;50.070;8.232;2023-04-15T01:58:05;99090.84;;;7.46;63.79
15817;BME280;8009;50.070;8.232;2023-04-15T02:00:36;99097.94;;;7.12;63.86
15817;BME280;8009;50.070;8.232;2023-04-15T02:03:04;99096.66;;;6.69;66.21
15817;BME280;8009;50.070;8.232;2023-04-15T02:05:32;99098.28;;;7.07;65.34
15817;BME280;8009;50.070;8.232;2023-04-15T02:08:01;99093.44;;;7.12;64.70
15817;BME280;8009;50.070;8.232;2023-04-15T02:10:29;99089.63;;;6.79;65.38
15817;BME280;8009;50.070;8.232;2023-04-15T02:12:59;99093.22;;;6.91;66.75
15817;BME280;8009;50.070;8.232;2023-04-15T02:15:27;99093.97;;;6.45;67.24
15817;BME280;8009;50.070;8.232;2023-04-15T02:17:58;99100.22;;;6.20;68.31
15817;BME280;8009;50.070;8.232;2023-04-15T02:20:27;99102.94;;;6.81;66.52
15817;BME280;8009;50.070;8.232;2023-04-15T02:22:56;99094.47;;;6.74;66.88
15817;BME280;8009;50.070;8.232;2023-04-15T02:25:25;99092.94;;;6.59;66.41
15817;BME280;8009;50.070;8.232;2023-04-15T02:27:53;99107.81;;;6.63;67.04
15817;BME280;8009;50.070;8.232;2023-04-15T02:30:24;99092.91;;;6.72;66.66
15817;BME280;8009;50.070;8.232;2023-04-15T02:32:52;99099.47;;;6.55;67.02
15817;BME280;8009;50.070;8.232;2023-04-15T02:35:23;99091.53;;;6.17;68.26
15817;BME280;8009;50.070;8.232;2023-04-15T02:37:52;99093.41;;;6.53;67.26
15817;BME280;8009;50.070;8.232;2023-04-15T02:40:20;99099.47;;;6.55;66.94
15817;BME280;8009;50.070;8.232;2023-04-15T02:42:48;99103.97;;;6.30;67.41
15817;BME280;8009;50.070;8.232;2023-04-15T02:45:17;99111.97;;;6.43;67.33
15817;BME280;8009;50.070;8.232;2023-04-15T02:47:48;99100.03;;;6.47;66.91
15817;BME280;8009;50.070;8.232;2023-04-15T02:50:16;99100.81;;;6.49;68.48
15817;BME280;8009;50.070;8.232;2023-04-15T02:52:47;99099.16;;;6.83;66.37
15817;BME280;8009;50.070;8.232;2023-04-15T02:55:16;99101.91;;;6.95;65.67
15817;BME280;8009;50.070;8.232;2023-04-15T02:57:45;99108.66;;;6.40;67.29
15817;BME280;8009;50.070;8.232;2023-04-15T03:00:13;99103.59;;;6.11;68.50
15817;BME280;8009;50.070;8.232;2023-04-15T03:02:43;99107.03;;;6.50;67.20
15817;BME280;8009;50.070;8.232;2023-04-15T03:05:12;99101.56;;;6.75;66.11
15817;BME280;8009;50.070;8.232;2023-04-15T03:07:40;99106.25;;;6.84;65.70
15817;BME280;8009;50.070;8.232;2023-04-15T03:10:11;99112.19;;;6.40;67.00
15817;BME280;8009;50.070;8.232;2023-04-15T03:12:40;99110.22;;;6.55;67.72
15817;BME280;8009;50.070;8.232;2023-04-15T03:15:09;99109.16;;;6.57;67.51
15817;BME280;8009;50.070;8.232;2023-04-15T03:17:37;99108.66;;;6.64;67.95
15817;BME280;8009;50.070;8.232;2023-04-15T03:20:06;99116.34;;;6.57;66.68
15817;BME280;8009;50.070;8.232;2023-04-15T03:22:35;99110.28;;;6.66;66.49
15817;BME280;8009;50.070;8.232;2023-04-15T03:25:04;99119.16;;;6.79;65.38
15817;BME280;8009;50.070;8.232;2023-04-15T03:27:37;99107.78;;;6.39;67.61
15817;BME280;8009;50.070;8.232;2023-04-15T03:30:07;99113.31;;;6.62;66.54
15817;BME280;8009;50.070;8.232;2023-04-15T03:32:35;99116.03;;;6.49;66.47
15817;BME280;8009;50.070;8.232;2023-04-15T03:35:04;99118.59;;;6.50;67.99
15817;BME280;8009;50.070;8.232;2023-04-15T03:37:32;99121.97;;;6.28;68.32
15817;BME280;8009;50.070;8.232;2023-04-15T03:40:01;99120.13;;;6.42;67.42
15817;BME280;8009;50.070;8.232;2023-04-15T03:42:29;99119.66;;;6.48;67.43
15817;BME280;8009;50.070;8.232;2023-04-15T03:45:00;99114.59;;;6.56;67.82
15817;BME280;8009;50.070;8.232;2023-04-15T03:47:28;99119.28;;;6.41;68.23
15817;BME280;8009;50.070;8.232;2023-04-15T03:49:56;99107.09;;;5.60;71.35
15817;BME280;8009;50.070;8.232;2023-04-15T03:52:25;99103.69;;;5.58;71.79
15817;BME280;8009;50.070;8.232;2023-04-15T03:54:53;99108.59;;;5.39;72.49
15817;BME280;8009;50.070;8.232;2023-04-15T03:57:22;99104.75;;;5.94;70.84
15817;BME280;8009;50.070;8.232;2023-04-15T03:59:50;99102.19;;;6.18;70.37
15817;BME280;8009;50.070;8.232;2023-04-15T04:02:21;99111.81;;;5.82;71.00
15817;BME280;8009;50.070;8.232;2023-04-15T04:04:50;99107.38;;;6.32;70.06
15817;BME280;8009;50.070;8.232;2023-04-15T04:07:18;99117.94;;;5.84;70.38
15817;BME280;8009;50.070;8.232;2023-04-15T04:09:46;99106.22;;;6.24;69.03
15817;BME280;8009;50.070;8.232;2023-04-15T04:12:14;99105.94;;;6.16;68.40
15817;BME280;8009;50.070;8.232;2023-04-15T04:14:43;99105.06;;;6.15;69.67
15817;BME280;8009;50.070;8.232;2023-04-15T04:17:11;99109.53;;;6.27;68.40
15817;BME280;8009;50.070;8.232;2023-04-15T04:19:42;99101.53;;;6.15;69.29
15817;BME280;8009;50.070;8.232;2023-04-15T04:22:10;99105.13;;;6.39;68.48
15817;BME280;8009;50.070;8.232;2023-04-15T04:24:39;99101.66;;;6.37;68.08
15817;BME280;8009;50.070;8.232;2023-04-15T04:27:07;99096.94;;;6.41;67.82
15817;BME280;8009;50.070;8.232;2023-04-15T04:29:35;99102.22;;;6.29;68.64
15817;BME280;8009;50.070;8.232;2023-04-15T04:32:04;99107.22;;;5.97;70.16
15817;BME280;8009;50.070;8.232;2023-04-15T04:34:32;99103.03;;;6.19;69.43
15817;BME280;8009;50.070;8.232;2023-04-15T04:37:03;99103.13;;;6.17;68.80
15817;BME280;8009;50.070;8.232;2023-04-15T04:39:31;99101.44;;;5.78;70.31
15817;BME280;8009;50.070;8.232;2023-04-15T04:42:00;99107.97;;;5.61;70.10
15817;BME280;8009;50.070;8.232;2023-04-15T04:44:28;99104.41;;;6.24;68.83
15817;BME280;8009;50.070;8.232;2023-04-15T04:46:56;99104.44;;;6.48;67.33
15817;BME280;8009;50.070;8.232;2023-04-15T04:49:25;99098.28;;;6.59;67.66
15817;BME280;8009;50.070;8.232;2023-04-15T04:51:53;99111.38;;;6.27;66.89
15817;BME280;8009;50.070;8.232;2023-04-15T04:54:24;99108.63;;;6.03;67.81
15817;BME280;8009;50.070;8.232;2023-04-15T04:56:53;99102.28;;;6.53;66.66
15817;BME280;8009;50.070;8.232;2023-04-15T04:59:22;99106.81;;;6.53;67.71
15817;BME280;8009;50.070;8.232;2023-04-15T05:01:50;99111.69;;;6.59;67.70
15817;BME280;8009;50.070;8.232;2023-04-15T05:04:19;99118.75;;;6.60;67.12
15817;BME280;8009;50.070;8.232;2023-04-15T05:06:47;99118.44;;;6.28;68.99
15817;BME280;8009;50.070;8.232;2023-04-15T05:09:16;99114.41;;;6.22;68.52
15817;BME280;8009;50.070;8.232;2023-04-15T05:11:47;99119.72;;;6.35;68.43
15817;BME280;8009;50.070;8.232;2023-04-15T05:14:15;99122.22;;;6.13;68.37
15817;BME280;8009;50.070;8.232;2023-04-15T05:16:43;99110.72;;;6.60;67.50
15817;BME280;8009;50.070;8.232;2023-04-15T05:19:12;99125.88;;;6.48;67.08
15817;BME280;8009;50.070;8.232;2023-04-15T05:21:40;99122.66;;;5.94;67.90
15817;BME280;8009;50.070;8.232;2023-04-15T05:24:08;99127.44;;;5.76;68.83
15817;BME280;8009;50.070;8.232;2023-04-15T05:26:36;99136.59;;;6.12;67.92
15817;BME280;8009;50.070;8.232;2023-04-15T05:29:08;99133.06;;;6.11;68.29
15817;BME280;8009;50.070;8.232;2023-04-15T05:31:36;99135.03;;;6.46;67.69
15817;BME280;8009;50.070;8.232;2023-04-15T05:34:05;99138.72;;;6.19;69.07
15817;BME280;8009;50.070;8.232;2023-04-15T05:36:33;99134.94;;;6.22;68.52
15817;BME280;8009;50.070;8.232;2023-04-15T05:39:01;99142.03;;;6.10;69.08
15817;BME280;8009;50.070;8.232;2023-04-15T05:41:30;99138.50;;;5.84;69.63
15817;BME280;8009;50.070;8.232;2023-04-15T05:43:58;99139.03;;;5.51;70.65
15817;BME280;8009;50.070;8.232;2023-04-15T05:46:30;99140.69;;;6.04;70.04
15817;BME280;8009;50.070;8.232;2023-04-15T05:48:58;99143.09;;;6.33;69.04
15817;BME280;8009;50.070;8.232;2023-04-15T05:51:26;99150.09;;;5.97;69.31
15817;BME280;8009;50.070;8.232;2023-04-15T05:53:55;99158.41;;;5.80;69.81
15817;BME280;8009;50.070;8.232;2023-04-15T05:56:23;99151.81;;;5.98;68.84
15817;BME280;8009;50.070;8.232;2023-04-15T05:58:52;99154.56;;;5.46;70.06
15817;BME280;8009;50.070;8.232;2023-04-15T06:01:20;99156.81;;;5.90;69.81
15817;BME280;8009;50.070;8.232;2023-04-15T06:03:52;99158.00;;;5.86;69.97
15817;BME280;8009;50.070;8.232;2023-04-15T06:06:21;99157.69;;;5.78;69.76
15817;BME280;8009;50.070;8.232;2023-04-15T06:08:49;99161.50;;;5.48;71.23
15817;BME280;8009;50.070;8.232;2023-04-15T06:11:21;99169.50;;;5.35;71.45
15817;BME280;8009;50.070;8.232;2023-04-15T06:13:51;99158.25;;;6.08;69.20
15817;BME280;8009;50.070;8.232;2023-04-15T06:16:19;99161.69;;;5.45;71.74
15817;BME280;8009;50.070;8.232;2023-04-15T06:18:47;99155.25;;;6.00;69.99
15817;BME280;8009;50.070;8.232;2023-04-15T06:21:18;99160.16;;;6.32;69.34
15817;BME280;8009;50.070;8.232;2023-04-15T06:23:47;99160.78;;;6.35;68.83
15817;BME280;8009;50.070;8.232;2023-04-15T06:26:15;99159.19;;;6.70;67.86
15817;BME280;8009;50.070;8.232;2023-04-15T06:28:43;99154.25;;;6.14;68.47
15817;BME280;8009;50.070;8.232;2023-04-15T06:31:13;99169.81;;;6.71;67.46
15817;BME280;8009;50.070;8.232;2023-04-15T06:33:41;99166.19;;;6.96;67.06
15817;BME280;8009;50.070;8.232;2023-04-15T06:36:09;99167.53;;;6.91;66.76
15817;BME280;8009;50.070;8.232;2023-04-15T06:38:40;99169.09;;;6.69;67.87
15817;BME280;8009;50.070;8.232;2023-04-15T06:41:09;99170.56;;;7.10;66.97
15817;BME280;8009;50.070;8.232;2023-04-15T06:43:37;99171.59;;;7.31;66.61
15817;BME280;8009;50.070;8.232;2023-04-15T06:46:06;99182.16;;;7.46;66.36
15817;BME280;8009;50.070;8.232;2023-04-15T06:48:35;99172.41;;;7.45;66.71
15817;BME280;8009;50.070;8.232;2023-04-15T06:51:03;99173.59;;;7.17;67.15
15817;BME280;8009;50.070;8.232;2023-04-15T06:53:32;99169.81;;;7.78;65.64
15817;BME280;8009;50.070;8.232;2023-04-15T06:56:08;99168.19;;;7.65;65.43
15817;BME280;8009;50.070;8.232;2023-04-15T06:58:36;99166.81;;;8.05;64.92
15817;BME280;8009;50.070;8.232;2023-04-15T07:01:05;99172.72;;;7.29;66.92
15817;BME280;8009;50.070;8.232;2023-04-15T07:03:33;99174.31;;;7.07;68.25
15817;BME280;8009;50.070;8.232;2023-04-15T07:06:01;99157.72;;;7.84;65.26
15817;BME280;8009;50.070;8.232;2023-04-15T07:08:31;99163.41;;;8.15;65.99
15817;BME280;8009;50.070;8.232;2023-04-15T07:10:59;99151.81;;;8.48;64.91
15817;BME280;8009;50.070;8.232;2023-04-15T07:13:31;99159.34;;;8.31;64.04
15817;BME280;8009;50.070;8.232;2023-04-15T07:15:59;99156.53;;;8.89;62.67
15817;BME280;8009;50.070;8.232;2023-04-15T07:18:27;99153.59;;;9.24;61.66
15817;BME280;8009;50.070;8.232;2023-04-15T07:20:56;99154.47;;;8.82;61.91
15817;BME280;8009;50.070;8.232;2023-04-15T07:23:24;99149.56;;;9.19;61.65
15817;BME280;8009;50.070;8.232;2023-04-15T07:25:54;99149.78;;;9.27;62.62
15817;BME280;8009;50.070;8.232;2023-04-15T07:28:23;99156.06;;;9.48;61.44
15817;BME280;8009;50.070;8.232;2023-04-15T07:30:54;99146.81;;;9.83;60.75
15817;BME280;8009;50.070;8.232;2023-04-15T07:33:22;99152.13;;;9.94;60.79
15817;BME280;8009;50.070;8.232;2023-04-15T07:35:51;99156.41;;;9.76;59.63
15817;BME280;8009;50.070;8.232;2023-04-15T07:38:19;99169.03;;;9.75;57.92
15817;BME280;8009;50.070;8.232;2023-04-15T07:40:47;99163.78;;;9.74;58.46
15817;BME280;8009;50.070;8.232;2023-04-15T07:43:16;99158.78;;;10.11;58.04
15817;BME280;8009;50.070;8.232;2023-04-15T07:45:45;99174.22;;;10.30;58.53
15817;BME280;8009;50.070;8.232;2023-04-15T07:48:16;99172.47;;;10.50;58.84
15817;BME280;8009;50.070;8.232;2023-04-15T07:50:44;99170.97;;;10.27;59.86
15817;BME280;8009;50.070;8.232;2023-04-15T07:53:14;99171.06;;;10.56;58.44
15817;BME280;8009;50.070;8.232;2023-04-15T07:55:44;99170.34;;;10.94;57.71
15817;BME280;8009;50.070;8.232;2023-04-15T07:58:12;99171.19;;;10.94;58.38
15817;BME280;8009;50.070;8.232;2023-04-15T08:00:40;99171.63;;;11.00;58.77
15817;BME280;8009;50.070;8.232;2023-04-15T08:03:09;99173.94;;;11.23;58.31
15817;BME280;8009;50.070;8.232;2023-04-15T08:05:40;99165.69;;;11.44;57.49
15817;BME280;8009;50.070;8.232;2023-04-15T08:08:09;99169.81;;;11.29;57.83
15817;BME280;8009;50.070;8.232;2023-04-15T08:10:37;99166.66;;;11.05;59.87
15817;BME280;8009;50.070;8.232;2023-04-15T08:13:05;99166.19;;;10.90;60.72
15817;BME280;8009;50.070;8.232;2023-04-15T08:15:34;99169.84;;;11.39;59.37
15817;BME280;8009;50.070;8.232;2023-04-15T08:18:03;99170.97;;;11.27;57.97
15817;BME280;8009;50.070;8.232;2023-04-15T08:20:31;99174.13;;;11.61;59.22
15817;BME280;8009;50.070;8.232;2023-04-15T08:23:02;99165.28;;;11.88;57.46
15817;BME280;8009;50.070;8.232;2023-04-15T08:25:31;99175.53;;;11.55;58.10
15817;BME280;8009;50.070;8.232;2023-04-15T08:28:03;99170.84;;;11.86;57.25
15817;BME280;8009;50.070;8.232;2023-04-15T08:30:31;99165.75;;;12.30;57.01
15817;BME280;8009;50.070;8.232;2023-04-15T08:33:00;99168.94;;;12.16;56.66
15817;BME280;8009;50.070;8.232;2023-04-15T08:35:28;99171.97;;;11.93;56.46
15817;BME280;8009;50.070;8.232;2023-04-15T08:37:57;99173.69;;;11.94;56.07
15817;BME280;8009;50.070;8.232;2023-04-15T08:40:47;99176.31;;;12.33;54.07
15817;BME280;8009;50.070;8.232;2023-04-15T08:46:51;99163.72;;;12.97;46.21
15817;BME280;8009;50.070;8.232;2023-04-15T08:49:20;99163.97;;;13.04;44.97
15817;BME280;8009;50.070;8.232;2023-04-15T08:51:49;99167.34;;;13.15;43.15
15817;BME280;8009;50.070;8.232;2023-04-15T08:54:17;99171.66;;;13.08;42.93
15817;BME280;8009;50.070;8.232;2023-04-15T08:56:48;99167.75;;;13.21;44.19
15817;BME280;8009;50.070;8.232;2023-04-15T08:59:18;99162.16;;;13.22;42.37
15817;BME280;8009;50.070;8.232;2023-04-15T09:01:48;99171.41;;;13.29;42.25
15817;BME280;8009;50.070;8.232;2023-04-15T09:04:17;99174.59;;;13.25;43.27
15817;BME280;8009;50.070;8.232;2023-04-15T09:06:45;99172.25;;;13.30;42.04
15817;BME280;8009;50.070;8.232;2023-04-15T09:09:14;99175.72;;;13.22;42.08
15817;BME280;8009;50.070;8.232;2023-04-15T09:11:42;99172.28;;;13.20;41.42
15817;BME280;8009;50.070;8.232;2023-04-15T09:14:13;99169.50;;;13.39;40.23
15817;BME280;8009;50.070;8.232;2023-04-15T09:16:59;99176.47;;;13.24;40.03
15817;BME280;8009;50.070;8.232;2023-04-15T09:19:28;99177.19;;;13.16;39.74
15817;BME280;8009;50.070;8.232;2023-04-15T09:21:58;99187.38;;;13.50;40.31
15817;BME280;8009;50.070;8.232;2023-04-15T09:24:35;99184.59;;;13.24;38.90
15817;BME280;8009;50.070;8.232;2023-04-15T09:27:05;99192.25;;;13.47;38.37
15817;BME280;8009;50.070;8.232;2023-04-15T09:29:36;99190.22;;;13.31;37.84
15817;BME280;8009;50.070;8.232;2023-04-15T09:32:12;99196.84;;;13.18;37.57
15817;BME280;8009;50.070;8.232;2023-04-15T09:34:41;99197.50;;;13.30;37.11
15817;BME280;8009;50.070;8.232;2023-04-15T09:37:10;99201.03;;;13.40;36.76
15817;BME280;8009;50.070;8.232;2023-04-15T09:39:47;99209.06;;;13.32;37.70
15817;BME280;8009;50.070;8.232;2023-04-15T09:42:16;99204.75;;;13.39;38.11
15817;BME280;8009;50.070;8.232;2023-04-15T09:44:51;99207.31;;;13.59;36.82
15817;BME280;8009;50.070;8.232;2023-04-15T09:47:29;99207.28;;;13.41;37.98
15817;BME280;8009;50.070;8.232;2023-04-15T09:49:58;99211.38;;;13.27;38.06
15817;BME280;8009;50.070;8.232;2023-04-15T09:52:28;99206.59;;;13.39;40.91
15817;BME280;8009;50.070;8.232;2023-04-15T09:54:57;99216.59;;;13.56;41.47
15817;BME280;8009;50.070;8.232;2023-04-15T09:57:33;99204.03;;;13.37;44.60
15817;BME280;8009;50.070;8.232;2023-04-15T10:00:07;99206.13;;;13.26;42.85
15817;BME280;8009;50.070;8.232;2023-04-15T10:02:35;99210.59;;;13.07;40.69
15817;BME280;8009;50.070;8.232;2023-04-15T10:05:05;99205.28;;;12.88;43.07
15817;BME280;8009;50.070;8.232;2023-04-15T10:07:34;99215.38;;;12.96;42.05
15817;BME280;8009;50.070;8.232;2023-04-15T10:10:04;99210.69;;;13.43;40.47
15817;BME280;8009;50.070;8.232;2023-04-15T10:12:36;99210.34;;;13.56;39.03
15817;BME280;8009;50.070;8.232;2023-04-15T10:24:38;99225.09;;;13.26;41.58
15817;BME280;8009;50.070;8.232;2023-04-15T10:27:07;99225.94;;;13.26;40.92
15817;BME280;8009;50.070;8.232;2023-04-15T10:29:36;99226.22;;;13.69;38.94
15817;BME280;8009;50.070;8.232;2023-04-15T10:32:18;99234.16;;;13.34;38.72
15817;BME280;8009;50.070;8.232;2023-04-15T10:34:48;99236.31;;;13.31;39.43
15817;BME280;8009;50.070;8.232;2023-04-15T10:37:20;99233.78;;;13.29;38.42
15817;BME280;8009;50.070;8.232;2023-04-15T10:39:49;99233.31;;;13.34;40.32
15817;BME280;8009;50.070;8.232;2023-04-15T10:42:18;99241.63;;;13.50;39.05
15817;BME280;8009;50.070;8.232;2023-04-15T10:44:48;99252.47;;;13.50;40.50
15817;BME280;8009;50.070;8.232;2023-04-15T10:47:20;99251.66;;;13.12;42.32
15817;BME280;8009;50.070;8.232;2023-04-15T10:49:50;99252.38;;;13.14;39.52
15817;BME280;8009;50.070;8.232;2023-04-15T10:52:22;99252.09;;;13.08;37.58
15817;BME280;8009;50.070;8.232;2023-04-15T10:55:01;99256.31;;;12.92;38.36
15817;BME280;8009;50.070;8.232;2023-04-15T10:57:37;99266.13;;;13.03;40.12
15817;BME280;8009;50.070;8.232;2023-04-15T11:06:51;99271.28;;;12.97;37.74
15817;BME280;8009;50.070;8.232;2023-04-15T11:09:33;99267.22;;;12.83;38.93
15817;BME280;8009;50.070;8.232;2023-04-15T11:12:05;99266.84;;;13.05;37.92
15817;BME280;8009;50.070;8.232;2023-04-15T11:14:39;99273.34;;;13.12;37.86
15817;BME280;8009;50.070;8.232;2023-04-15T11:17:09;99268.84;;;13.31;38.10
15817;BME280;8009;50.070;8.232;2023-04-15T11:19:37;99277.16;;;13.29;38.59
15817;BME280;8009;50.070;8.232;2023-04-15T11:22:10;99275.63;;;13.17;38.11
15817;BME280;8009;50.070;8.232;2023-04-15T11:24:46;99259.13;;;13.38;39.12
15817;BME280;8009;50.070;8.232;2023-04-15T11:27:20;99280.13;;;12.99;40.48
15817;BME280;8009;50.070;8.232;2023-04-15T11:29:48;99273.88;;;12.88;40.23
15817;BME280;8009;50.070;8.232;2023-04-15T11:32:17;99277.44;;;12.89;42.17
15817;BME280;8009;50.070;8.232;2023-04-15T11:34:45;99277.44;;;12.89;44.38
15817;BME280;8009;50.070;8.232;2023-04-15T11:37:16;99286.72;;;12.86;41.08
15817;BME280;8009;50.070;8.232;2023-04-15T11:39:46;99288.06;;;12.63;40.72
15817;BME280;8009;50.070;8.232;2023-04-15T11:42:16;99292.78;;;12.71;43.42
15817;BME280;8009;50.070;8.232;2023-04-15T11:44:44;99295.84;;;12.85;40.73
15817;BME280;8009;50.070;8.232;2023-04-15T11:47:21;99295.38;;;13.00;40.66
15817;BME280;8009;50.070;8.232;2023-04-15T11:49:50;99294.78;;;13.06;41.26
15817;BME280;8009;50.070;8.232;2023-04-15T11:52:21;99297.28;;;13.27;41.64
15817;BME280;8009;50.070;8.232;2023-04-15T11:54:50;99300.31;;;13.14;43.83
15817;BME280;8009;50.070;8.232;2023-04-15T11:57:18;99312.13;;;13.50;41.88
15817;BME280;8009;50.070;8.232;2023-04-15T12:12:32;99319.38;;;13.32;45.92
15817;BME280;8009;50.070;8.232;2023-04-15T12:15:01;99325.44;;;13.06;45.92
15817;BME280;8009;50.070;8.232;2023-04-15T12:17:36;99321.38;;;13.20;45.28
15817;BME280;8009;50.070;8.232;2023-04-15T12:23:29;99332.94;;;13.22;46.76
15817;BME280;8009;50.070;8.232;2023-04-15T12:25:58;99332.81;;;13.24;45.57
15817;BME280;8009;50.070;8.232;2023-04-15T12:28:34;99338.25;;;13.14;47.28
15817;BME280;8009;50.070;8.232;2023-04-15T12:34:28;99343.91;;;12.83;48.50
15817;BME280;8009;50.070;8.232;2023-04-15T12:46:37;99348.66;;;13.18;47.43
15817;BME280;8009;50.070;8.232;2023-04-15T12:49:07;99355.53;;;13.13;49.60
15817;BME280;8009;50.070;8.232;2023-04-15T12:51:36;99374.72;;;12.82;50.04
15817;BME280;8009;50.070;8.232;2023-04-15T12:54:06;99371.03;;;12.64;51.09
15817;BME280;8009;50.070;8.232;2023-04-15T12:59:47;99383.56;;;12.65;50.50
15817;BME280;8009;50.070;8.232;2023-04-15T13:02:18;99391.22;;;12.99;50.01
15817;BME280;8009;50.070;8.232;2023-04-15T13:08:00;99397.41;;;12.72;52.88
15817;BME280;8009;50.070;8.232;2023-04-15T13:10:29;99401.09;;;12.51;54.96
15817;BME280;8009;50.070;8.232;2023-04-15T13:12:59;99407.22;;;12.43;55.64
15817;BME280;8009;50.070;8.232;2023-04-15T13:15:28;99415.78;;;12.10;57.11
15817;BME280;8009;50.070;8.232;2023-04-15T13:17:59;99423.34;;;12.26;57.29
15817;BME280;8009;50.070;8.232;2023-04-15T13:20:27;99424.75;;;12.10;58.09
15817;BME280;8009;50.070;8.232;2023-04-15T13:22:56;99417.06;;;12.06;58.69
15817;BME280;8009;50.070;8.232;2023-04-15T13:25:24;99435.72;;;12.18;58.63
15817;BME280;8009;50.070;8.232;2023-04-15T13:27:53;99425.59;;;12.11;60.10
15817;BME280;8009;50.070;8.232;2023-04-15T13:30:21;99439.16;;;12.30;59.37
15817;BME280;8009;50.070;8.232;2023-04-15T13:32:50;99436.31;;;12.22;60.00
15817;BME280;8009;50.070;8.232;2023-04-15T13:35:21;99449.00;;;12.51;60.42
15817;BME280;8009;50.070;8.232;2023-04-15T13:37:49;99453.00;;;12.37;60.42
15817;BME280;8009;50.070;8.232;2023-04-15T13:40:20;99450.25;;;12.27;61.05
15817;BME280;8009;50.070;8.232;2023-04-15T13:42:50;99445.56;;;12.10;61.93
15817;BME280;8009;50.070;8.232;2023-04-15T13:45:18;99450.03;;;11.90;61.68
15817;BME280;8009;50.070;8.232;2023-04-15T13:47:47;99466.75;;;11.74;63.26
15817;BME280;8009;50.070;8.232;2023-04-15T13:50:16;99468.25;;;11.88;63.16
15817;BME280;8009;50.070;8.232;2023-04-15T13:52:46;99463.16;;;11.94;64.03
15817;BME280;8009;50.070;8.232;2023-04-15T13:55:15;99453.03;;;11.56;65.10
15817;BME280;8009;50.070;8.232;2023-04-15T13:57:43;99470.41;;;11.63;64.51
15817;BME280;8009;50.070;8.232;2023-04-15T14:00:13;99465.19;;;11.41;64.89
15817;BME280;8009;50.070;8.232;2023-04-15T14:02:41;99469.44;;;11.64;64.07
15817;BME280;8009;50.070;8.232;2023-04-15T14:05:10;99471.84;;;11.67;64.91
15817;BME280;8009;50.070;8.232;2023-04-15T14:07:38;99481.53;;;11.70;64.89
15817;BME280;8009;50.070;8.232;2023-04-15T14:10:09;99489.97;;;11.77;65.44
15817;BME280;8009;50.070;8.232;2023-04-15T14:12:38;99486.84;;;11.51;64.32
15817;BME280;8009;50.070;8.232;2023-04-15T14:15:07;99489.47;;;11.62;64.39
15817;BME280;8009;50.070;8.232;2023-04-15T14:17:35;99487.59;;;11.32;65.66
15817;BME280;8009;50.070;8.232;2023-04-15T14:20:07;99500.13;;;10.91;67.45
15817;BME280;8009;50.070;8.232;2023-04-15T14:22:35;99499.22;;;11.22;67.70
15817;BME280;8009;50.070;8.232;2023-04-15T14:25:04;99514.16;;;11.06;68.83